createdAt,value
2022-10-24T00:00:11.169Z,53.05
2022-10-24T00:01:11.114Z,71.38
2022-10-24T00:02:11.121Z,53.30
2022-10-24T00:03:11.211Z,54.75
2022-10-24T00:04:11.094Z,60.39
2022-10-24T00:05:11.083Z,44.66
2022-10-24T00:06:11.057Z,60.17
2022-10-24T00:07:11.060Z,50.38
2022-10-24T00:08:12.062Z,53.83
2022-10-24T00:09:11.042Z,58.67
2022-10-24T00:10:11.028Z,46.30
2022-10-24T00:11:11.030Z,44.32
2022-10-24T00:12:11.051Z,48.09
2022-10-24T00:13:11.005Z,43.21
2022-10-24T00:14:10.986Z,43.79
2022-10-24T00:15:10.973Z,51.87
2022-10-24T00:16:10.969Z,44.37
2022-10-24T00:17:10.944Z,42.86
2022-10-24T00:18:10.962Z,42.71
2022-10-24T00:19:10.955Z,43.83
2022-10-24T00:20:10.925Z,51.53
2022-10-24T00:21:10.921Z,59.79
2022-10-24T00:22:10.906Z,51.40
2022-10-24T00:23:10.904Z,44.00
2022-10-24T00:24:10.898Z,43.15
2022-10-24T00:25:10.873Z,53.80
2022-10-24T00:26:10.866Z,51.57
2022-10-24T00:27:10.864Z,44.75
2022-10-24T00:28:10.846Z,46.38
2022-10-24T00:29:10.862Z,58.01
2022-10-24T00:30:10.821Z,54.43
2022-10-24T00:31:10.809Z,47.42
2022-10-24T00:32:10.814Z,47.29
2022-10-24T00:33:10.792Z,45.40
2022-10-24T00:34:10.782Z,45.50
2022-10-24T00:35:10.807Z,46.66
2022-10-24T00:36:10.763Z,54.03
2022-10-24T00:37:10.850Z,47.58
2022-10-24T00:38:10.746Z,46.66
2022-10-24T00:39:10.735Z,45.29
2022-10-24T00:40:10.761Z,62.05
2022-10-24T00:41:10.767Z,49.96
2022-10-24T00:42:10.705Z,48.54
2022-10-24T00:43:10.707Z,46.30
2022-10-24T00:44:10.682Z,48.19
2022-10-24T00:45:10.681Z,59.99
2022-10-24T00:46:10.693Z,52.05
2022-10-24T00:47:10.647Z,54.44
2022-10-24T00:48:10.656Z,51.23
2022-10-24T00:49:10.636Z,48.93
2022-10-24T00:50:10.626Z,46.28
2022-10-24T00:51:10.618Z,49.86
2022-10-24T00:52:10.616Z,57.26
2022-10-24T00:53:10.585Z,48.48
2022-10-24T00:54:10.579Z,47.97
2022-10-24T00:55:10.565Z,45.43
2022-10-24T00:56:10.563Z,46.96
2022-10-24T00:57:10.579Z,43.94
2022-10-24T00:58:10.530Z,54.88
2022-10-24T00:59:10.536Z,50.71
2022-10-24T01:00:10.543Z,51.10
2022-10-24T01:01:10.645Z,49.67
2022-10-24T01:02:11.536Z,51.29
2022-10-24T01:03:10.512Z,47.48
2022-10-24T01:04:10.485Z,51.75
2022-10-24T01:05:10.479Z,47.53
2022-10-24T01:06:10.443Z,53.59
2022-10-24T01:07:11.477Z,50.90
2022-10-24T01:08:10.507Z,50.49
2022-10-24T01:09:10.422Z,45.92
2022-10-24T01:10:10.418Z,47.43
2022-10-24T01:11:10.414Z,49.81
2022-10-24T01:12:10.415Z,49.64
2022-10-24T01:13:10.457Z,47.94
2022-10-24T01:14:10.392Z,56.65
2022-10-24T01:15:10.370Z,52.64
2022-10-24T01:16:10.362Z,51.36
2022-10-24T01:17:10.343Z,43.37
2022-10-24T01:18:10.345Z,45.62
2022-10-24T01:19:10.362Z,51.91
2022-10-24T01:20:10.318Z,52.50
2022-10-24T01:21:10.348Z,50.43
2022-10-24T01:22:10.303Z,64.23
2022-10-24T01:23:11.304Z,51.04
2022-10-24T01:24:10.280Z,45.40
2022-10-24T01:25:10.394Z,50.89
2022-10-24T01:26:10.501Z,48.05
2022-10-24T01:27:10.315Z,49.81
2022-10-24T01:28:10.821Z,47.72
2022-10-24T01:29:10.233Z,54.64
2022-10-24T01:30:10.247Z,45.88
2022-10-24T01:31:10.218Z,46.30
2022-10-24T01:32:10.227Z,50.72
2022-10-24T01:33:10.194Z,55.41
2022-10-24T01:34:10.192Z,62.93
2022-10-24T01:35:10.188Z,55.83
2022-10-24T01:36:10.187Z,49.69
2022-10-24T01:37:10.188Z,46.83
2022-10-24T01:38:10.150Z,47.62
2022-10-24T01:39:10.145Z,47.40
2022-10-24T01:40:10.136Z,47.95
2022-10-24T01:41:10.120Z,46.56
2022-10-24T01:42:10.140Z,47.47
2022-10-24T01:43:10.122Z,49.26
2022-10-24T01:44:10.101Z,47.90
2022-10-24T01:45:10.085Z,49.94
2022-10-24T01:46:10.067Z,57.74
2022-10-24T01:47:10.057Z,53.40
2022-10-24T01:48:10.077Z,51.94
2022-10-24T01:49:10.034Z,51.98
2022-10-24T01:50:10.025Z,56.12
2022-10-24T01:51:10.018Z,50.86
2022-10-24T01:52:10.085Z,45.80
2022-10-24T01:53:10.001Z,44.57
2022-10-24T01:54:10.014Z,50.03
2022-10-24T01:55:10.985Z,54.20
2022-10-24T01:56:09.968Z,55.22
2022-10-24T01:57:09.967Z,55.77
2022-10-24T01:58:09.950Z,56.15
2022-10-24T01:59:09.943Z,56.94
2022-10-24T02:00:10.011Z,55.12
2022-10-24T02:01:10.001Z,52.40
2022-10-24T02:02:09.931Z,51.65
2022-10-24T02:03:09.906Z,60.80
2022-10-24T02:04:09.883Z,49.65
2022-10-24T02:05:09.896Z,49.13
2022-10-24T02:06:09.866Z,48.95
2022-10-24T02:07:09.857Z,47.96
2022-10-24T02:08:09.842Z,54.68
2022-10-24T02:09:09.844Z,51.18
2022-10-24T02:10:09.854Z,55.77
2022-10-24T02:11:09.822Z,53.05
2022-10-24T02:12:09.833Z,50.14
2022-10-24T02:13:09.817Z,55.82
2022-10-24T02:14:09.790Z,55.99
2022-10-24T02:15:11.404Z,47.64
2022-10-24T02:16:09.786Z,47.56
2022-10-24T02:17:09.770Z,51.16
2022-10-24T02:18:09.788Z,53.72
2022-10-24T02:19:10.394Z,51.83
2022-10-24T02:20:10.759Z,52.82
2022-10-24T02:21:10.014Z,51.86
2022-10-24T02:22:09.719Z,53.48
2022-10-24T02:23:09.711Z,50.92
2022-10-24T02:24:09.698Z,49.08
2022-10-24T02:25:09.689Z,51.44
2022-10-24T02:26:09.703Z,55.48
2022-10-24T02:27:09.667Z,54.50
2022-10-24T02:28:09.690Z,60.59
2022-10-24T02:29:09.658Z,58.09
2022-10-24T02:30:09.629Z,53.45
2022-10-24T02:31:09.625Z,53.03
2022-10-24T02:32:09.629Z,51.87
2022-10-24T02:33:09.611Z,50.84
2022-10-24T02:34:09.628Z,51.69
2022-10-24T02:35:09.591Z,55.20
2022-10-24T02:36:09.584Z,51.99
2022-10-24T02:37:09.585Z,62.74
2022-10-24T02:38:09.584Z,58.59
2022-10-24T02:39:09.544Z,54.28
2022-10-24T02:40:09.542Z,55.71
2022-10-24T02:41:10.536Z,51.10
2022-10-24T02:42:09.517Z,54.36
2022-10-24T02:43:09.652Z,55.56
2022-10-24T02:44:09.761Z,54.13
2022-10-24T02:45:09.498Z,57.24
2022-10-24T02:46:09.493Z,55.79
2022-10-24T02:47:09.483Z,54.93
2022-10-24T02:48:09.473Z,64.42
2022-10-24T02:49:09.474Z,55.44
2022-10-24T02:50:09.454Z,52.16
2022-10-24T02:51:09.438Z,49.50
2022-10-24T02:52:09.434Z,52.08
2022-10-24T02:53:09.419Z,55.48
2022-10-24T02:54:41.317Z,57.01
2022-10-24T02:55:09.397Z,54.06
2022-10-24T02:56:09.393Z,54.26
2022-10-24T02:57:09.382Z,56.32
2022-10-24T02:58:09.371Z,57.26
2022-10-24T03:00:09.378Z,58.34
2022-10-24T03:01:09.453Z,56.90
2022-10-24T03:02:09.623Z,58.37
2022-10-24T03:03:10.912Z,59.37
2022-10-24T03:04:09.314Z,58.25
2022-10-24T03:05:09.312Z,59.82
2022-10-24T03:06:09.294Z,56.92
2022-10-24T03:07:09.288Z,55.38
2022-10-24T03:08:09.266Z,59.44
2022-10-24T03:09:09.273Z,59.37
2022-10-24T03:10:09.291Z,59.24
2022-10-24T03:11:09.267Z,56.93
2022-10-24T03:12:09.234Z,58.05
2022-10-24T03:13:09.227Z,56.30
2022-10-24T03:14:09.301Z,54.59
2022-10-24T03:15:09.236Z,54.92
2022-10-24T03:16:11.722Z,56.77
2022-10-24T03:17:09.183Z,56.62
2022-10-24T03:18:09.186Z,57.54
2022-10-24T03:19:09.170Z,56.39
2022-10-24T03:20:09.158Z,56.04
2022-10-24T03:21:09.188Z,59.88
2022-10-24T03:22:09.144Z,62.79
2022-10-24T03:23:09.133Z,58.88
2022-10-24T03:24:09.138Z,57.14
2022-10-24T03:25:09.118Z,56.23
2022-10-24T03:26:09.089Z,63.54
2022-10-24T03:27:09.118Z,58.45
2022-10-24T03:28:09.081Z,56.99
2022-10-24T03:29:09.086Z,61.90
2022-10-24T03:30:09.080Z,58.75
2022-10-24T03:31:09.059Z,60.62
2022-10-24T03:32:09.045Z,58.00
2022-10-24T03:33:09.039Z,59.72
2022-10-24T03:34:09.039Z,59.09
2022-10-24T03:35:11.727Z,59.07
2022-10-24T03:36:11.023Z,60.10
2022-10-24T03:37:08.994Z,59.95
2022-10-24T03:38:08.994Z,67.13
2022-10-24T03:39:08.969Z,60.40
2022-10-24T03:40:08.959Z,65.10
2022-10-24T03:41:08.979Z,58.51
2022-10-24T03:42:08.942Z,58.54
2022-10-24T03:43:08.947Z,59.73
2022-10-24T03:44:08.930Z,58.93
2022-10-24T03:45:08.915Z,66.07
2022-10-24T03:46:08.915Z,58.26
2022-10-24T03:47:08.905Z,58.61
2022-10-24T03:48:08.884Z,66.45
2022-10-24T03:49:08.911Z,64.21
2022-10-24T03:50:08.871Z,58.51
2022-10-24T03:51:08.868Z,56.62
2022-10-24T03:52:08.867Z,60.33
2022-10-24T03:53:08.865Z,60.56
2022-10-24T03:54:08.849Z,58.08
2022-10-24T03:55:08.828Z,58.90
2022-10-24T03:56:08.807Z,57.87
2022-10-24T03:57:08.834Z,59.76
2022-10-24T03:58:08.810Z,62.50
2022-10-24T03:59:08.781Z,59.53
2022-10-24T04:00:08.823Z,57.82
2022-10-24T04:01:08.865Z,64.67
2022-10-24T04:02:08.757Z,60.88
2022-10-24T04:03:08.749Z,59.60
2022-10-24T04:04:08.731Z,57.14
2022-10-24T04:05:08.742Z,56.12
2022-10-24T04:06:08.714Z,57.59
2022-10-24T04:07:08.714Z,60.73
2022-10-24T04:08:08.709Z,59.98
2022-10-24T04:09:08.677Z,58.50
2022-10-24T04:10:08.701Z,59.84
2022-10-24T04:11:08.695Z,61.78
2022-10-24T04:12:08.664Z,56.95
2022-10-24T04:13:08.636Z,57.53
2022-10-24T04:14:08.652Z,58.01
2022-10-24T04:15:08.647Z,58.42
2022-10-24T04:16:08.645Z,59.47
2022-10-24T04:17:08.611Z,58.07
2022-10-24T04:18:08.595Z,59.02
2022-10-24T04:19:08.597Z,61.20
2022-10-24T04:20:08.582Z,59.45
2022-10-24T04:21:08.583Z,58.88
2022-10-24T04:22:08.597Z,58.59
2022-10-24T04:23:08.555Z,56.85
2022-10-24T04:24:08.548Z,57.66
2022-10-24T04:25:08.533Z,58.81
2022-10-24T04:26:08.549Z,57.38
2022-10-24T04:27:08.512Z,57.75
2022-10-24T04:28:08.506Z,56.54
2022-10-24T04:29:08.497Z,58.09
2022-10-24T04:30:11.551Z,59.42
2022-10-24T04:31:08.463Z,59.24
2022-10-24T04:32:08.472Z,57.46
2022-10-24T04:33:08.453Z,59.06
2022-10-24T04:34:08.451Z,58.22
2022-10-24T04:35:08.460Z,58.94
2022-10-24T04:36:08.421Z,58.90
2022-10-24T04:37:09.441Z,59.83
2022-10-24T04:38:08.417Z,58.22
2022-10-24T04:39:08.413Z,59.19
2022-10-24T04:40:08.397Z,59.09
2022-10-24T04:41:11.230Z,58.69
2022-10-24T04:42:08.396Z,60.25
2022-10-24T04:43:08.362Z,60.52
2022-10-24T04:44:08.349Z,59.12
2022-10-24T04:45:08.337Z,60.17
2022-10-24T04:46:08.330Z,60.82
2022-10-24T04:47:09.366Z,61.87
2022-10-24T04:48:08.346Z,64.02
2022-10-24T04:49:08.295Z,59.83
2022-10-24T04:50:08.317Z,60.62
2022-10-24T04:51:08.276Z,58.12
2022-10-24T04:52:08.269Z,58.74
2022-10-24T04:53:08.279Z,59.57
2022-10-24T04:54:08.251Z,58.93
2022-10-24T04:55:08.257Z,59.84
2022-10-24T04:56:08.224Z,59.19
2022-10-24T04:57:08.226Z,60.20
2022-10-24T04:58:08.242Z,60.18
2022-10-24T04:59:08.197Z,58.54
2022-10-24T05:00:08.190Z,57.14
2022-10-24T05:01:08.212Z,59.74
2022-10-24T05:02:08.236Z,58.75
2022-10-24T05:03:08.166Z,60.32
2022-10-24T05:04:08.149Z,58.61
2022-10-24T05:05:08.138Z,58.85
2022-10-24T05:06:08.150Z,57.40
2022-10-24T05:07:08.134Z,64.65
2022-10-24T05:08:08.132Z,59.47
2022-10-24T05:09:08.109Z,58.08
2022-10-24T05:10:08.092Z,57.40
2022-10-24T05:11:08.078Z,60.46
2022-10-24T05:12:08.107Z,60.83
2022-10-24T05:13:08.082Z,58.79
2022-10-24T05:14:08.066Z,58.80
2022-10-24T05:15:08.037Z,61.26
2022-10-24T05:16:08.031Z,58.54
2022-10-24T05:17:08.039Z,58.91
2022-10-24T05:18:08.016Z,57.56
2022-10-24T05:19:08.005Z,60.08
2022-10-24T05:20:07.999Z,61.09
2022-10-24T05:21:07.973Z,65.87
2022-10-24T05:22:10.741Z,58.70
2022-10-24T05:23:07.963Z,58.49
2022-10-24T05:24:07.940Z,58.97
2022-10-24T05:25:07.956Z,58.40
2022-10-24T05:26:07.929Z,62.51
2022-10-24T05:27:07.932Z,60.27
2022-10-24T05:28:07.934Z,59.55
2022-10-24T05:30:08.881Z,60.49
2022-10-24T05:31:07.876Z,66.09
2022-10-24T05:32:07.875Z,60.99
2022-10-24T05:33:07.898Z,60.41
2022-10-24T05:34:07.861Z,59.58
2022-10-24T05:35:07.856Z,62.07
2022-10-24T05:36:07.839Z,59.54
2022-10-24T05:37:07.825Z,60.06
2022-10-24T05:38:07.846Z,61.36
2022-10-24T05:39:07.817Z,59.81
2022-10-24T05:40:07.805Z,59.39
2022-10-24T05:41:07.802Z,59.57
2022-10-24T05:42:07.781Z,61.21
2022-10-24T05:43:07.803Z,59.91
2022-10-24T05:44:07.774Z,59.05
2022-10-24T05:45:07.758Z,60.39
2022-10-24T05:46:07.748Z,60.89
2022-10-24T05:47:07.739Z,58.93
2022-10-24T05:48:07.743Z,65.36
2022-10-24T05:49:07.719Z,59.49
2022-10-24T05:50:07.712Z,60.99
2022-10-24T05:51:07.711Z,62.38
2022-10-24T05:52:07.689Z,59.01
2022-10-24T05:53:07.720Z,60.60
2022-10-24T05:54:07.701Z,59.88
2022-10-24T05:55:08.442Z,60.09
2022-10-24T05:56:08.658Z,60.32
2022-10-24T05:57:07.678Z,61.69
2022-10-24T05:58:07.625Z,60.18
2022-10-24T05:59:07.641Z,60.50
2022-10-24T06:00:07.609Z,60.06
2022-10-24T06:01:07.954Z,58.72
2022-10-24T06:02:07.665Z,60.41
2022-10-24T06:03:07.690Z,59.91
2022-10-24T06:04:10.044Z,61.34
2022-10-24T06:05:08.795Z,61.84
2022-10-24T06:06:08.055Z,62.28
2022-10-24T06:07:07.561Z,61.83
2022-10-24T06:08:07.565Z,60.00
2022-10-24T06:09:07.525Z,61.09
2022-10-24T06:10:07.538Z,60.83
2022-10-24T06:11:07.550Z,60.12
2022-10-24T06:12:07.497Z,60.75
2022-10-24T06:13:07.495Z,59.30
2022-10-24T06:14:07.492Z,59.45
2022-10-24T06:15:07.478Z,61.09
2022-10-24T06:16:07.483Z,59.88
2022-10-24T06:17:07.454Z,59.67
2022-10-24T06:18:07.448Z,58.71
2022-10-24T06:19:07.448Z,59.96
2022-10-24T06:20:07.432Z,61.15
2022-10-24T06:21:07.409Z,62.35
2022-10-24T06:22:07.436Z,59.97
2022-10-24T06:23:07.415Z,60.63
2022-10-24T06:24:07.394Z,64.40
2022-10-24T06:25:07.377Z,62.71
2022-10-24T06:26:07.406Z,60.78
2022-10-24T06:27:07.362Z,60.05
2022-10-24T06:29:07.319Z,58.21
2022-10-24T06:30:07.334Z,60.23
2022-10-24T06:31:07.343Z,59.90
2022-10-24T06:32:07.306Z,59.21
2022-10-24T06:33:07.288Z,58.48
2022-10-24T06:34:07.287Z,61.34
2022-10-24T06:35:07.273Z,60.54
2022-10-24T06:36:07.267Z,58.66
2022-10-24T06:37:07.275Z,58.89
2022-10-24T06:38:07.245Z,59.51
2022-10-24T06:39:07.243Z,58.88
2022-10-24T06:40:07.225Z,59.81
2022-10-24T06:41:07.242Z,57.31
2022-10-24T06:42:07.212Z,58.57
2022-10-24T06:43:07.227Z,57.17
2022-10-24T06:44:10.867Z,65.78
2022-10-24T06:45:08.193Z,58.14
2022-10-24T06:46:07.182Z,58.30
2022-10-24T06:47:07.170Z,57.31
2022-10-24T06:48:07.268Z,58.47
2022-10-24T06:49:07.163Z,59.26
2022-10-24T06:50:08.133Z,58.50
2022-10-24T06:51:07.118Z,58.54
2022-10-24T06:52:07.114Z,59.58
2022-10-24T06:53:07.129Z,56.67
2022-10-24T06:54:07.122Z,60.25
2022-10-24T06:55:07.082Z,58.83
2022-10-24T06:56:07.072Z,58.20
2022-10-24T06:57:07.054Z,60.98
2022-10-24T06:58:07.086Z,60.21
2022-10-24T06:59:07.046Z,59.71
2022-10-24T07:00:08.039Z,57.27
2022-10-24T07:01:07.130Z,59.65
2022-10-24T07:02:07.066Z,59.47
2022-10-24T07:03:07.091Z,67.80
2022-10-24T07:04:07.011Z,59.94
2022-10-24T07:05:06.990Z,57.70
2022-10-24T07:06:06.981Z,60.84
2022-10-24T07:07:06.960Z,60.57
2022-10-24T07:08:06.961Z,58.27
2022-10-24T07:09:10.235Z,59.88
2022-10-24T07:10:06.935Z,59.20
2022-10-24T07:11:06.915Z,59.64
2022-10-24T07:12:06.957Z,58.14
2022-10-24T07:13:06.896Z,57.35
2022-10-24T07:14:09.097Z,59.25
2022-10-24T07:15:07.898Z,60.57
2022-10-24T07:16:06.867Z,61.06
2022-10-24T07:17:06.892Z,57.18
2022-10-24T07:18:06.857Z,59.41
2022-10-24T07:19:06.854Z,58.24
2022-10-24T07:20:06.827Z,61.22
2022-10-24T07:21:06.818Z,59.92
2022-10-24T07:22:06.836Z,60.03
2022-10-24T07:23:06.797Z,59.69
2022-10-24T07:24:06.789Z,59.53
2022-10-24T07:25:06.785Z,61.22
2022-10-24T07:26:06.767Z,58.59
2022-10-24T07:27:06.750Z,62.01
2022-10-24T07:28:06.770Z,60.35
2022-10-24T07:29:06.736Z,60.46
2022-10-24T07:30:06.727Z,60.29
2022-10-24T07:31:06.725Z,63.60
2022-10-24T07:32:06.712Z,62.65
2022-10-24T07:33:06.722Z,56.12
2022-10-24T07:34:06.707Z,59.35
2022-10-24T07:35:06.693Z,65.50
2022-10-24T07:36:06.673Z,60.11
2022-10-24T07:37:06.935Z,59.93
2022-10-24T07:38:06.663Z,60.41
2022-10-24T07:39:06.739Z,60.73
2022-10-24T07:40:06.627Z,60.79
2022-10-24T07:41:06.615Z,59.75
2022-10-24T07:42:06.623Z,58.15
2022-10-24T07:43:06.618Z,59.05
2022-10-24T07:44:06.608Z,60.81
2022-10-24T07:45:06.602Z,59.18
2022-10-24T07:46:06.569Z,58.14
2022-10-24T07:47:06.559Z,59.51
2022-10-24T07:48:06.548Z,59.46
2022-10-24T07:49:06.541Z,60.56
2022-10-24T07:50:06.541Z,60.66
2022-10-24T07:51:06.549Z,60.20
2022-10-24T07:52:06.519Z,59.26
2022-10-24T07:53:06.500Z,58.26
2022-10-24T07:54:06.500Z,61.80
2022-10-24T07:55:06.475Z,59.32
2022-10-24T07:56:06.474Z,58.94
2022-10-24T07:57:06.498Z,58.88
2022-10-24T07:58:06.446Z,58.16
2022-10-24T07:59:09.591Z,58.43
2022-10-24T08:00:07.433Z,57.62
2022-10-24T08:01:06.466Z,56.72
2022-10-24T08:02:06.428Z,57.80
2022-10-24T08:03:06.433Z,58.11
2022-10-24T08:04:06.389Z,58.95
2022-10-24T08:05:06.388Z,58.39
2022-10-24T08:06:06.377Z,60.69
2022-10-24T08:07:06.364Z,58.99
2022-10-24T08:09:08.360Z,60.70
2022-10-24T08:10:06.334Z,65.66
2022-10-24T08:11:06.322Z,59.91
2022-10-24T08:12:06.329Z,60.85
2022-10-24T08:13:09.253Z,58.35
2022-10-24T08:14:07.320Z,58.51
2022-10-24T08:15:06.279Z,57.02
2022-10-24T08:16:06.275Z,60.26
2022-10-24T08:17:06.256Z,56.98
2022-10-24T08:18:06.249Z,57.96
2022-10-24T08:19:06.259Z,60.69
2022-10-24T08:20:06.286Z,58.67
2022-10-24T08:21:06.226Z,56.38
2022-10-24T08:22:06.220Z,56.94
2022-10-24T08:23:06.221Z,58.98
2022-10-24T08:24:06.207Z,61.14
2022-10-24T08:25:06.185Z,55.65
2022-10-24T08:26:06.187Z,57.63
2022-10-24T08:27:06.166Z,58.77
2022-10-24T08:28:08.264Z,62.11
2022-10-24T08:29:06.163Z,60.86
2022-10-24T08:30:06.134Z,57.53
2022-10-24T08:31:06.188Z,57.15
2022-10-24T08:32:06.099Z,59.34
2022-10-24T08:33:06.101Z,57.35
2022-10-24T08:34:06.096Z,57.53
2022-10-24T08:35:06.067Z,59.06
2022-10-24T08:36:06.091Z,58.14
2022-10-24T08:37:06.059Z,58.17
2022-10-24T08:38:06.051Z,58.76
2022-10-24T08:39:06.052Z,60.30
2022-10-24T08:40:06.037Z,58.05
2022-10-24T08:41:06.062Z,58.58
2022-10-24T08:42:06.014Z,59.64
2022-10-24T08:43:05.997Z,57.45
2022-10-24T08:44:05.991Z,60.26
2022-10-24T08:45:05.985Z,58.69
2022-10-24T08:46:05.994Z,58.04
2022-10-24T08:47:05.963Z,55.12
2022-10-24T08:48:06.516Z,57.82
2022-10-24T08:49:05.953Z,56.25
2022-10-24T08:50:05.933Z,58.63
2022-10-24T08:51:05.952Z,58.15
2022-10-24T08:52:05.920Z,57.30
2022-10-24T08:53:05.902Z,64.87
2022-10-24T08:55:48.626Z,57.07
2022-10-24T08:56:05.893Z,56.52
2022-10-24T08:57:05.872Z,60.97
2022-10-24T08:58:05.891Z,57.03
2022-10-24T08:59:05.846Z,56.87
2022-10-24T09:00:05.844Z,55.55
2022-10-24T09:01:05.885Z,57.86
2022-10-24T09:02:07.793Z,61.74
2022-10-24T09:03:05.858Z,55.45
2022-10-24T09:04:05.787Z,57.72
2022-10-24T09:05:05.791Z,55.08
2022-10-24T09:06:05.774Z,56.94
2022-10-24T09:07:05.758Z,57.59
2022-10-24T09:08:05.780Z,56.13
2022-10-24T09:09:05.734Z,56.20
2022-10-24T09:10:05.738Z,57.54
2022-10-24T09:11:05.739Z,56.45
2022-10-24T09:12:05.712Z,56.64
2022-10-24T09:13:05.694Z,57.61
2022-10-24T09:14:05.724Z,56.44
2022-10-24T09:15:05.690Z,56.48
2022-10-24T09:16:05.670Z,56.84
2022-10-24T09:17:05.707Z,54.07
2022-10-24T09:18:05.667Z,55.53
2022-10-24T09:19:05.638Z,58.57
2022-10-24T09:20:05.626Z,55.87
2022-10-24T09:21:05.642Z,56.37
2022-10-24T09:22:05.623Z,57.97
2022-10-24T09:23:05.607Z,57.06
2022-10-24T09:24:05.585Z,58.55
2022-10-24T09:25:05.599Z,55.83
2022-10-24T09:26:05.579Z,55.60
2022-10-24T09:27:05.563Z,56.63
2022-10-24T09:28:05.548Z,56.13
2022-10-24T09:29:05.565Z,56.80
2022-10-24T09:30:05.535Z,57.26
2022-10-24T09:31:05.520Z,58.76
2022-10-24T09:32:05.513Z,57.20
2022-10-24T09:33:05.507Z,56.62
2022-10-24T09:34:05.515Z,62.15
2022-10-24T09:35:05.500Z,57.67
2022-10-24T09:36:05.479Z,64.11
2022-10-24T09:37:05.479Z,56.56
2022-10-24T09:38:05.462Z,56.14
2022-10-24T09:39:05.462Z,57.21
2022-10-24T09:40:05.422Z,55.57
2022-10-24T09:41:05.441Z,56.57
2022-10-24T09:42:05.416Z,56.84
2022-10-24T09:43:05.401Z,54.15
2022-10-24T09:44:05.401Z,56.39
2022-10-24T09:45:05.414Z,58.54
2022-10-24T09:46:05.395Z,56.91
2022-10-24T09:47:05.383Z,58.19
2022-10-24T09:48:05.411Z,55.28
2022-10-24T09:49:05.352Z,55.91
2022-10-24T09:50:05.358Z,55.66
2022-10-24T09:51:05.319Z,58.04
2022-10-24T09:52:05.312Z,55.65
2022-10-24T09:53:05.324Z,56.48
2022-10-24T09:54:05.289Z,56.78
2022-10-24T09:55:05.281Z,54.84
2022-10-24T09:56:05.269Z,54.43
2022-10-24T09:57:05.286Z,55.64
2022-10-24T09:58:05.297Z,56.92
2022-10-24T09:59:05.243Z,54.12
2022-10-24T10:00:05.245Z,55.79
2022-10-24T10:01:05.359Z,56.79
2022-10-24T10:02:05.281Z,56.07
2022-10-24T10:03:05.230Z,57.98
2022-10-24T10:04:09.354Z,57.37
2022-10-24T10:05:06.183Z,57.14
2022-10-24T10:06:05.158Z,54.32
2022-10-24T10:08:06.182Z,55.90
2022-10-24T10:09:05.141Z,61.56
2022-10-24T10:10:05.137Z,56.21
2022-10-24T10:11:05.144Z,54.63
2022-10-24T10:12:05.105Z,56.91
2022-10-24T10:13:05.114Z,56.79
2022-10-24T10:14:05.108Z,55.24
2022-10-24T10:15:05.095Z,56.48
2022-10-24T10:16:05.071Z,57.99
2022-10-24T10:17:05.060Z,56.96
2022-10-24T10:18:05.065Z,55.63
2022-10-24T10:19:05.060Z,55.65
2022-10-24T10:20:05.035Z,56.73
2022-10-24T10:21:05.027Z,56.50
2022-10-24T10:22:05.018Z,59.01
2022-10-24T10:23:05.010Z,57.16
2022-10-24T10:24:05.011Z,59.47
2022-10-24T10:25:05.052Z,57.97
2022-10-24T10:26:04.977Z,58.10
2022-10-24T10:27:04.967Z,54.82
2022-10-24T10:28:05.954Z,55.30
2022-10-24T10:29:04.953Z,55.82
2022-10-24T10:30:04.938Z,56.67
2022-10-24T10:31:04.948Z,55.51
2022-10-24T10:32:04.913Z,57.22
2022-10-24T10:33:04.897Z,56.87
2022-10-24T10:34:04.911Z,57.87
2022-10-24T10:35:04.886Z,55.53
2022-10-24T10:36:04.890Z,54.77
2022-10-24T10:37:04.863Z,59.23
2022-10-24T10:38:04.875Z,56.27
2022-10-24T10:39:04.846Z,57.73
2022-10-24T10:40:04.877Z,57.44
2022-10-24T10:41:04.832Z,56.79
2022-10-24T10:42:04.847Z,54.25
2022-10-24T10:43:04.815Z,56.49
2022-10-24T10:44:05.814Z,63.25
2022-10-24T10:45:04.794Z,58.70
2022-10-24T10:46:05.786Z,57.61
2022-10-24T10:47:04.789Z,54.16
2022-10-24T10:48:04.778Z,56.19
2022-10-24T10:49:04.741Z,57.64
2022-10-24T10:50:04.784Z,58.35
2022-10-24T10:51:07.415Z,59.55
2022-10-24T10:52:04.724Z,60.17
2022-10-24T10:53:04.738Z,58.01
2022-10-24T10:54:04.699Z,64.97
2022-10-24T10:55:04.692Z,59.76
2022-10-24T10:56:04.679Z,57.50
2022-10-24T10:57:04.663Z,62.89
2022-10-24T10:58:04.751Z,56.70
2022-10-24T10:59:04.643Z,56.54
2022-10-24T11:00:04.659Z,56.09
2022-10-24T11:01:04.711Z,55.50
2022-10-24T11:02:04.747Z,57.07
2022-10-24T11:03:04.594Z,57.52
2022-10-24T11:04:04.653Z,58.18
2022-10-24T11:05:04.588Z,59.44
2022-10-24T11:06:04.598Z,55.83
2022-10-24T11:07:04.573Z,56.31
2022-10-24T11:08:04.571Z,56.97
2022-10-24T11:09:04.575Z,60.00
2022-10-24T11:10:04.545Z,55.13
2022-10-24T11:11:04.537Z,57.39
2022-10-24T11:12:04.531Z,56.67
2022-10-24T11:13:04.510Z,53.54
2022-10-24T11:14:04.539Z,58.08
2022-10-24T11:15:04.509Z,59.22
2022-10-24T11:16:04.490Z,58.41
2022-10-24T11:17:04.480Z,56.15
2022-10-24T11:18:04.523Z,54.87
2022-10-24T11:19:04.528Z,55.77
2022-10-24T11:20:04.585Z,57.71
2022-10-24T11:21:04.424Z,59.83
2022-10-24T11:22:04.434Z,58.54
2022-10-24T11:23:04.425Z,56.38
2022-10-24T11:24:04.408Z,57.27
2022-10-24T11:25:04.411Z,56.47
2022-10-24T11:26:04.463Z,56.21
2022-10-24T11:27:04.422Z,55.07
2022-10-24T11:28:04.356Z,56.28
2022-10-24T11:29:04.352Z,55.46
2022-10-24T11:30:04.348Z,54.61
2022-10-24T11:31:04.339Z,56.68
2022-10-24T11:33:05.315Z,59.85
2022-10-24T11:34:04.351Z,53.92
2022-10-24T11:35:04.300Z,58.36
2022-10-24T11:36:04.290Z,56.39
2022-10-24T11:37:04.277Z,57.41
2022-10-24T11:38:04.288Z,59.09
2022-10-24T11:39:04.290Z,60.19
2022-10-24T11:40:04.261Z,56.28
2022-10-24T11:41:04.271Z,58.11
2022-10-24T11:42:04.226Z,57.19
2022-10-24T11:43:04.225Z,56.94
2022-10-24T11:44:04.227Z,56.52
2022-10-24T11:45:04.208Z,54.88
2022-10-24T11:46:04.208Z,55.58
2022-10-24T11:47:06.471Z,55.48
2022-10-24T11:48:04.175Z,55.90
2022-10-24T11:49:05.174Z,55.98
2022-10-24T11:50:04.175Z,53.77
2022-10-24T11:51:04.148Z,55.71
2022-10-24T11:52:04.138Z,55.55
2022-10-24T11:53:04.129Z,55.36
2022-10-24T11:54:04.135Z,55.62
2022-10-24T11:55:04.129Z,55.84
2022-10-24T11:56:04.093Z,54.35
2022-10-24T11:57:04.196Z,60.72
2022-10-24T11:58:04.091Z,56.23
2022-10-24T11:59:04.067Z,57.40
2022-10-24T12:00:04.068Z,55.38
2022-10-24T12:01:04.122Z,54.27
2022-10-24T12:02:04.039Z,56.04
2022-10-24T12:03:04.078Z,55.94
2022-10-24T12:04:04.026Z,55.42
2022-10-24T12:05:04.006Z,56.06
2022-10-24T12:06:04.007Z,55.15
2022-10-24T12:07:03.978Z,57.24
2022-10-24T12:08:03.975Z,61.52
2022-10-24T12:09:03.985Z,57.42
2022-10-24T12:10:03.991Z,58.58
2022-10-24T12:11:03.942Z,58.27
2022-10-24T12:12:03.960Z,57.10
2022-10-24T12:13:03.929Z,58.92
2022-10-24T12:14:03.955Z,57.58
2022-10-24T12:15:03.941Z,55.69
2022-10-24T12:16:03.898Z,56.02
2022-10-24T12:17:03.887Z,57.28
2022-10-24T12:18:03.884Z,56.18
2022-10-24T12:19:03.869Z,56.17
2022-10-24T12:20:03.856Z,56.35
2022-10-24T12:21:03.851Z,58.14
2022-10-24T12:22:03.866Z,57.65
2022-10-24T12:23:03.819Z,58.77
2022-10-24T12:24:03.829Z,55.70
2022-10-24T12:25:03.812Z,56.86
2022-10-24T12:26:03.812Z,57.57
2022-10-24T12:27:03.793Z,57.44
2022-10-24T12:28:03.766Z,55.97
2022-10-24T12:29:03.785Z,57.61
2022-10-24T12:30:03.761Z,54.09
2022-10-24T12:31:03.768Z,56.08
2022-10-24T12:32:03.728Z,56.41
2022-10-24T12:33:03.726Z,55.26
2022-10-24T12:34:03.726Z,58.38
2022-10-24T12:35:29.996Z,56.12
2022-10-24T12:36:05.736Z,56.96
2022-10-24T12:37:03.695Z,57.18
2022-10-24T12:38:03.702Z,57.17
2022-10-24T12:39:03.675Z,58.79
2022-10-24T12:40:03.662Z,57.36
2022-10-24T12:41:03.651Z,54.70
2022-10-24T12:42:03.655Z,55.78
2022-10-24T12:43:03.670Z,56.13
2022-10-24T12:44:03.616Z,56.74
2022-10-24T12:45:03.613Z,57.19
2022-10-24T12:46:09.539Z,58.47
2022-10-24T12:47:04.592Z,56.57
2022-10-24T12:48:03.620Z,57.92
2022-10-24T12:49:03.569Z,56.14
2022-10-24T12:50:03.576Z,56.59
2022-10-24T12:51:03.558Z,56.03
2022-10-24T12:52:03.597Z,56.73
2022-10-24T12:53:03.557Z,55.82
2022-10-24T12:54:03.525Z,61.83
2022-10-24T12:55:03.520Z,56.65
2022-10-24T12:56:03.496Z,55.28
2022-10-24T12:57:03.493Z,60.28
2022-10-24T12:58:03.562Z,55.96
2022-10-24T12:59:03.497Z,56.82